Terminal Aerodrome Forecast
Issued by NWS

Home | Current Version | Previous Version | Graphics & Text | Print | Product List | Glossary On
Versions: 1 2 3 4 5 6 7 8 9 10 11 12 13 14 15 16 17 18 19 20 21
167
FTUS43 KGRB 031442 AAA
TAFCWA
TAF AMD
KCWA 031442Z 0315/0412 34009G14KT 6SM -SN OVC012
      TEMPO 0315/0316 4SM -SN BR OVC010
     FM032000 30012G18KT P6SM OVC015
     FM032300 30008KT P6SM SCT015 BKN030
     FM040400 30004KT P6SM SCT030 BKN100=

USA.gov is the U.S. government's official web portal to all federal, state and local government web resources and services.